Time;durP1;ratioP1;P1;durP2;ratioP2;P2;SDS_P1;SDS_P2;PMS_P1;PMS_P2;Temp;Humidity;BMP_temperature;BMP_pressure;BME280_temperature;BME280_humidity;BME280_pressure;Samples;Min_cycle;Max_cycle;Signal;HPM_P1;HPM_P2
2021/05/21 00:02:25;;;;;;;2.83;1.83;;;14.10;99.90;;;;;;4991480;28;20019;-85
2021/05/21 00:04:50;;;;;;;2.25;1.50;;;14.10;99.90;;;;;;4991607;28;20026;-86
2021/05/21 00:07:16;;;;;;;2.00;1.70;;;14.10;99.90;;;;;;4991532;28;20414;-85
2021/05/21 00:09:42;;;;;;;1.63;1.40;;;14.10;99.90;;;;;;4990434;28;20026;-86
2021/05/21 00:12:08;;;;;;;2.95;2.40;;;14.10;99.90;;;;;;4991350;28;20034;-86
2021/05/21 00:14:33;;;;;;;3.22;1.50;;;14.20;99.90;;;;;;4993225;28;20031;-86
2021/05/21 00:16:59;;;;;;;2.25;1.40;;;14.30;99.90;;;;;;4994254;28;20093;-86
2021/05/21 00:19:25;;;;;;;1.48;1.38;;;14.40;99.90;;;;;;4994439;28;20026;-86
2021/05/21 00:21:50;;;;;;;2.85;1.70;;;14.50;99.90;;;;;;4994529;28;20034;-86
2021/05/21 00:24:16;;;;;;;4.40;1.75;;;14.50;99.90;;;;;;4994808;28;20034;-86
2021/05/21 00:26:41;;;;;;;2.78;1.60;;;14.50;99.90;;;;;;4995383;28;20057;-86
2021/05/21 00:29:07;;;;;;;1.48;1.30;;;14.60;99.90;;;;;;4978482;28;20030;-86
2021/05/21 00:31:33;;;;;;;2.88;1.52;;;14.70;99.90;;;;;;4994314;28;20042;-86
2021/05/21 00:34:00;;;;;;;1.67;1.40;;;15.00;99.90;;;;;;4994939;28;20030;-86
2021/05/21 00:36:25;;;;;;;2.30;1.20;;;14.80;99.90;;;;;;4994268;28;20034;-86
2021/05/21 00:38:51;;;;;;;1.35;1.17;;;14.80;99.90;;;;;;4994874;28;20030;-86
2021/05/21 00:41:21;;;;;;;2.45;1.23;;;14.80;99.90;;;;;;4994477;28;20026;-86
2021/05/21 00:43:47;;;;;;;3.35;1.30;;;15.10;99.90;;;;;;4994363;28;20109;-85
2021/05/21 00:46:12;;;;;;;4.57;1.08;;;15.00;99.90;;;;;;4993779;28;20121;-86
2021/05/21 00:48:38;;;;;;;3.47;1.30;;;15.00;99.90;;;;;;4994761;28;20525;-86
2021/05/21 00:51:04;;;;;;;1.55;1.17;;;15.00;99.90;;;;;;4994293;28;20481;-86
2021/05/21 00:53:31;;;;;;;3.03;1.25;;;15.10;99.90;;;;;;4994846;28;20407;-86
2021/05/21 00:55:58;;;;;;;3.75;1.00;;;15.20;99.90;;;;;;4994015;28;20502;-86
2021/05/21 00:58:24;;;;;;;1.42;1.00;;;15.20;99.90;;;;;;4993938;28;20117;-86
2021/05/21 01:00:54;;;;;;;2.55;1.30;;;15.10;99.90;;;;;;4977515;28;20109;-86
2021/05/21 01:03:20;;;;;;;1.27;1.13;;;15.00;99.90;;;;;;4976640;28;20031;-86
2021/05/21 01:05:46;;;;;;;1.08;0.98;;;15.00;99.90;;;;;;4994875;28;20034;-87
2021/05/21 01:08:13;;;;;;;5.45;1.40;;;14.90;99.90;;;;;;4993834;28;20527;-87
2021/05/21 01:10:38;;;;;;;3.92;1.55;;;14.80;99.90;;;;;;4977612;28;20027;-86
2021/05/21 01:13:04;;;;;;;2.80;1.30;;;15.00;99.90;;;;;;4993714;28;20038;-86
2021/05/21 01:15:35;;;;;;;2.92;1.55;;;14.80;99.90;;;;;;4993940;28;20054;-87
2021/05/21 01:18:01;;;;;;;1.30;1.20;;;14.80;99.90;;;;;;4976319;28;20044;-86
2021/05/21 01:20:30;;;;;;;3.55;1.50;;;14.70;99.90;;;;;;4993345;28;20397;-86
2021/05/21 01:22:55;;;;;;;4.53;1.48;;;14.70;99.90;;;;;;4993548;28;20034;-86
2021/05/21 01:25:21;;;;;;;1.80;1.38;;;14.80;99.90;;;;;;4993217;28;20054;-86
2021/05/21 01:27:47;;;;;;;1.10;1.02;;;14.80;99.90;;;;;;4976956;28;20353;-86
2021/05/21 01:30:13;;;;;;;1.58;0.90;;;14.80;99.90;;;;;;4976446;28;20427;-86
2021/05/21 01:32:39;;;;;;;1.38;0.90;;;14.90;99.90;;;;;;4991849;28;20039;-86
2021/05/21 01:35:06;;;;;;;1.55;1.13;;;14.90;99.90;;;;;;4993178;28;20026;-87
2021/05/21 01:37:32;;;;;;;1.30;1.10;;;14.90;99.90;;;;;;4993097;28;20042;-87
2021/05/21 01:39:57;;;;;;;2.33;1.02;;;15.30;99.90;;;;;;4977357;28;20022;-86
2021/05/21 01:42:23;;;;;;;1.98;0.80;;;15.00;99.90;;;;;;4993375;28;20034;-86
2021/05/21 01:44:54;;;;;;;1.33;0.80;;;14.90;99.90;;;;;;4993976;28;20031;-86
2021/05/21 01:47:20;;;;;;;2.55;0.80;;;15.10;99.90;;;;;;4993099;28;20057;-86
2021/05/21 01:49:45;;;;;;;1.65;0.70;;;15.20;99.90;;;;;;4977145;28;20053;-86
2021/05/21 01:52:11;;;;;;;1.95;0.90;;;15.40;99.90;;;;;;4993295;28;20026;-86
2021/05/21 01:54:36;;;;;;;1.95;1.35;;;15.30;99.90;;;;;;4976802;28;20116;-86
2021/05/21 01:57:03;;;;;;;2.22;1.30;;;15.20;99.90;;;;;;4975337;28;20134;-86
2021/05/21 01:59:29;;;;;;;1.10;0.93;;;15.10;99.90;;;;;;4993258;28;20431;-87
2021/05/21 02:01:54;;;;;;;3.25;1.00;;;15.00;99.90;;;;;;4993391;28;20026;-86
2021/05/21 02:04:35;;;;;;;1.48;1.10;;;14.90;99.90;;;;;;4992570;28;20514;-86
2021/05/21 02:07:01;;;;;;;2.38;1.00;;;15.10;99.90;;;;;;4992860;28;20753;-86
2021/05/21 02:09:27;;;;;;;2.00;1.00;;;15.10;99.90;;;;;;4977177;28;20621;-86
2021/05/21 02:11:53;;;;;;;1.38;0.98;;;15.10;99.90;;;;;;4975850;28;20423;-86
2021/05/21 02:14:19;;;;;;;1.65;0.77;;;15.20;99.90;;;;;;4992920;28;20022;-86
2021/05/21 02:16:45;;;;;;;1.05;0.90;;;15.20;99.90;;;;;;4992388;28;20215;-86
2021/05/21 02:19:11;;;;;;;2.05;1.00;;;15.20;99.90;;;;;;4992755;28;20575;-86
2021/05/21 02:21:39;;;;;;;1.80;1.20;;;15.20;99.90;;;;;;4992657;28;20023;-86
2021/05/21 02:24:06;;;;;;;1.38;1.05;;;15.30;99.90;;;;;;4992701;28;20026;-86
2021/05/21 02:26:33;;;;;;;1.40;1.02;;;15.30;99.90;;;;;;4991743;28;20066;-86
2021/05/21 02:28:59;;;;;;;1.92;1.02;;;15.40;99.90;;;;;;4992882;28;20570;-85
2021/05/21 02:31:25;;;;;;;1.90;1.10;;;15.40;99.90;;;;;;4992287;28;20137;-86
2021/05/21 02:33:50;;;;;;;1.48;0.88;;;15.40;99.90;;;;;;4992379;28;20125;-86
2021/05/21 02:36:16;;;;;;;0.77;0.77;;;15.40;99.90;;;;;;4992454;28;20117;-86
2021/05/21 02:38:42;;;;;;;1.13;0.77;;;15.50;99.90;;;;;;4992689;28;20109;-86
2021/05/21 02:41:07;;;;;;;3.80;1.27;;;15.50;99.90;;;;;;4991671;28;20030;-86
2021/05/21 02:43:33;;;;;;;2.58;0.80;;;15.40;99.90;;;;;;4991992;28;20113;-86
2021/05/21 02:45:59;;;;;;;2.17;0.85;;;15.30;99.90;;;;;;4975955;28;20403;-86
2021/05/21 02:48:24;;;;;;;1.20;0.82;;;15.50;99.90;;;;;;4992524;28;20027;-86
2021/05/21 02:50:50;;;;;;;2.15;1.02;;;15.50;99.90;;;;;;4992368;28;20054;-86
2021/05/21 02:53:15;;;;;;;0.80;0.80;;;15.50;99.90;;;;;;4992045;28;20057;-86
2021/05/21 02:55:41;;;;;;;1.35;0.95;;;15.50;99.90;;;;;;4992185;28;20116;-86
2021/05/21 02:58:07;;;;;;;1.55;1.00;;;15.50;99.90;;;;;;4991727;28;20120;-86
2021/05/21 03:00:32;;;;;;;1.70;0.90;;;15.50;99.90;;;;;;4992369;28;20101;-87
2021/05/21 03:02:58;;;;;;;0.98;0.90;;;15.60;99.90;;;;;;4992296;28;20479;-86
2021/05/21 03:05:24;;;;;;;2.90;0.93;;;15.50;99.90;;;;;;4992193;28;20488;-85
2021/05/21 03:07:57;;;;;;;2.10;1.00;;;15.50;99.90;;;;;;4991731;28;20026;-86
2021/05/21 03:10:27;;;;;;;2.03;0.90;;;15.50;99.90;;;;;;4991077;28;20030;-86
2021/05/21 03:12:53;;;;;;;1.50;1.02;;;15.40;99.90;;;;;;4991953;28;20037;-86
2021/05/21 03:15:20;;;;;;;3.80;1.10;;;15.30;99.90;;;;;;4991842;28;20030;-86
2021/05/21 03:17:46;;;;;;;2.03;0.90;;;14.90;99.90;;;;;;4992378;28;20515;-86
2021/05/21 03:20:13;;;;;;;2.90;1.00;;;14.60;99.90;;;;;;4991499;28;20488;-86
2021/05/21 03:22:39;;;;;;;2.28;0.93;;;14.50;99.90;;;;;;4976381;28;20018;-86
2021/05/21 03:25:05;;;;;;;3.00;1.00;;;14.60;99.90;;;;;;4991377;28;20510;-86
2021/05/21 03:27:32;;;;;;;1.63;1.00;;;14.80;99.90;;;;;;4991743;28;20113;-86
2021/05/21 03:29:59;;;;;;;1.13;0.88;;;15.00;99.90;;;;;;4992387;28;20117;-86
2021/05/21 03:32:25;;;;;;;1.33;0.98;;;15.00;99.90;;;;;;4991847;28;20035;-86
2021/05/21 03:34:50;;;;;;;1.30;0.90;;;15.00;99.90;;;;;;4991616;28;20113;-86
2021/05/21 03:37:16;;;;;;;2.45;0.88;;;15.00;99.90;;;;;;4991700;28;20414;-86
2021/05/21 03:39:42;;;;;;;1.80;0.80;;;15.20;99.90;;;;;;4990631;28;20487;-86
2021/05/21 03:42:08;;;;;;;1.13;0.70;;;15.30;99.90;;;;;;4991577;28;20037;-86
2021/05/21 03:44:33;;;;;;;1.88;1.00;;;15.30;99.90;;;;;;4992173;28;20027;-86
2021/05/21 03:47:02;;;;;;;1.25;1.00;;;15.20;99.90;;;;;;4991534;28;20105;-86
2021/05/21 03:49:31;;;;;;;1.42;0.90;;;15.20;99.90;;;;;;4994250;28;20026;-86
2021/05/21 03:51:57;;;;;;;1.85;0.77;;;15.20;99.90;;;;;;4995338;28;20427;-86
2021/05/21 03:54:23;;;;;;;0.95;0.70;;;15.20;99.90;;;;;;4977404;28;20499;-86
2021/05/21 03:56:51;;;;;;;1.92;0.77;;;15.30;99.90;;;;;;4978376;28;20499;-86
2021/05/21 03:59:16;;;;;;;1.27;0.80;;;15.30;99.90;;;;;;4979155;28;20066;-86
2021/05/21 04:01:43;;;;;;;1.85;1.02;;;15.30;99.90;;;;;;4978817;28;20060;-86
2021/05/21 04:04:09;;;;;;;2.20;0.70;;;15.30;99.90;;;;;;4994924;28;20503;-85
2021/05/21 04:06:34;;;;;;;2.80;0.75;;;15.30;99.90;;;;;;4978703;28;20057;-86
2021/05/21 04:09:05;;;;;;;1.10;0.80;;;15.40;99.90;;;;;;4994908;28;20037;-86
2021/05/21 04:11:31;;;;;;;2.17;0.90;;;15.40;99.90;;;;;;4995373;28;20081;-86
2021/05/21 04:13:57;;;;;;;2.55;0.90;;;15.40;99.90;;;;;;4994759;28;20030;-86
2021/05/21 04:16:23;;;;;;;3.22;0.95;;;15.40;99.90;;;;;;4994474;28;20031;-86
2021/05/21 04:18:48;;;;;;;1.05;0.77;;;15.50;99.90;;;;;;4995297;28;20553;-86
2021/05/21 04:21:15;;;;;;;0.75;0.73;;;15.50;99.90;;;;;;4995253;28;20026;-86
2021/05/21 04:23:41;;;;;;;1.00;0.80;;;15.50;99.90;;;;;;4994958;28;20026;-86
2021/05/21 04:26:07;;;;;;;0.80;0.70;;;15.60;99.90;;;;;;4994424;28;20042;-86
2021/05/21 04:28:32;;;;;;;2.22;0.80;;;15.60;99.90;;;;;;4978537;28;20487;-86
2021/05/21 04:30:58;;;;;;;3.15;0.77;;;15.70;99.90;;;;;;4994559;28;20030;-86
2021/05/21 04:33:23;;;;;;;2.10;0.90;;;15.70;99.90;;;;;;4994906;28;20137;-86
2021/05/21 04:35:49;;;;;;;2.80;1.00;;;15.60;99.90;;;;;;4995157;28;20084;-86
2021/05/21 04:38:15;;;;;;;1.40;1.10;;;15.70;99.90;;;;;;4994201;28;20541;-85
2021/05/21 04:40:40;;;;;;;1.38;1.00;;;15.80;99.90;;;;;;4994003;28;20018;-86
2021/05/21 04:43:06;;;;;;;1.00;0.88;;;15.80;99.90;;;;;;4994636;28;20041;-86
2021/05/21 04:45:31;;;;;;;0.80;0.68;;;15.80;99.90;;;;;;4994303;28;20030;-85
2021/05/21 04:47:57;;;;;;;1.30;0.90;;;15.90;99.90;;;;;;4994825;28;20034;-86
2021/05/21 04:50:23;;;;;;;2.50;0.85;;;16.00;99.90;;;;;;4994696;28;20435;-86
2021/05/21 04:52:49;;;;;;;3.08;1.23;;;15.90;99.90;;;;;;4993999;28;20031;-86
2021/05/21 04:55:15;;;;;;;0.85;0.70;;;15.90;99.90;;;;;;4993870;28;20037;-86
2021/05/21 04:57:42;;;;;;;2.28;0.80;;;15.90;99.90;;;;;;4994156;28;20049;-86
2021/05/21 05:00:08;;;;;;;2.03;1.25;;;16.00;99.90;;;;;;4993551;28;20466;-86
2021/05/21 05:02:34;;;;;;;1.15;0.80;;;15.90;99.90;;;;;;4994681;28;20037;-85
2021/05/21 05:05:00;;;;;;;2.28;1.00;;;15.90;99.90;;;;;;4993695;28;20034;-86
2021/05/21 05:07:25;;;;;;;1.15;0.75;;;16.00;99.90;;;;;;4993691;28;20030;-86
2021/05/21 05:09:51;;;;;;;1.73;0.80;;;15.60;99.90;;;;;;4993913;28;20035;-87
2021/05/21 05:12:16;;;;;;;1.77;0.77;;;15.80;99.90;;;;;;4993673;28;20535;-85
2021/05/21 05:14:42;;;;;;;1.20;0.63;;;15.90;99.90;;;;;;4994828;28;20026;-86
2021/05/21 05:17:07;;;;;;;1.02;0.80;;;15.90;99.90;;;;;;4964506;28;20089;-87
2021/05/21 05:19:33;;;;;;;2.95;1.05;;;15.90;99.90;;;;;;4986617;28;20034;-85
2021/05/21 05:21:59;;;;;;;1.98;0.80;;;15.90;99.90;;;;;;4993608;28;20426;-86
2021/05/21 05:24:26;;;;;;;1.65;0.80;;;15.90;99.90;;;;;;4993501;28;20109;-85
2021/05/21 05:26:52;;;;;;;2.15;1.00;;;15.90;99.90;;;;;;4994112;28;20307;-85
2021/05/21 05:29:18;;;;;;;4.47;0.88;;;15.90;99.90;;;;;;4993697;28;20030;-86
2021/05/21 05:31:46;;;;;;;2.85;0.90;;;15.90;99.90;;;;;;4993458;28;20030;-85
2021/05/21 05:34:13;;;;;;;2.28;0.82;;;15.90;99.90;;;;;;4992932;28;20033;-85
2021/05/21 05:36:39;;;;;;;2.40;0.88;;;16.00;99.90;;;;;;4993578;28;20479;-83
2021/05/21 05:39:05;;;;;;;0.93;0.68;;;16.00;99.90;;;;;;4976745;28;20117;-90
2021/05/21 05:41:32;;;;;;;1.40;0.90;;;16.10;99.90;;;;;;4979723;28;20117;-95
2021/05/21 05:43:57;;;;;;;1.02;0.75;;;16.20;99.90;;;;;;4994290;28;20029;-89
2021/05/21 05:46:23;;;;;;;2.35;0.70;;;16.20;99.90;;;;;;4979762;28;20031;-92
2021/05/21 05:48:50;;;;;;;1.60;0.90;;;16.30;99.90;;;;;;4978517;28;20137;-91
2021/05/21 05:51:16;;;;;;;1.55;0.80;;;16.30;99.90;;;;;;4977792;28;20030;-93
2021/05/21 05:53:41;;;;;;;1.48;0.90;;;16.20;99.90;;;;;;4994829;28;20034;-90
2021/05/21 05:56:08;;;;;;;2.35;0.93;;;16.20;99.90;;;;;;4993649;28;20026;-89
2021/05/21 05:58:33;;;;;;;0.82;0.77;;;16.20;99.90;;;;;;4978902;28;20042;-96
2021/05/21 06:00:59;;;;;;;2.75;0.90;;;16.30;99.90;;;;;;4977842;28;20498;-92
2021/05/21 06:03:28;;;;;;;2.03;1.02;;;16.30;99.90;;;;;;4975098;28;20042;-87
2021/05/21 06:05:54;;;;;;;2.05;0.90;;;16.50;99.90;;;;;;4990715;28;20645;-85
2021/05/21 06:08:19;;;;;;;4.43;0.90;;;16.50;99.90;;;;;;4989468;28;20042;-86
2021/05/21 06:10:45;;;;;;;1.40;0.90;;;16.60;99.90;;;;;;4992057;28;20050;-86
2021/05/21 06:13:11;;;;;;;0.93;0.85;;;16.80;99.90;;;;;;4990484;28;20033;-87
2021/05/21 06:15:38;;;;;;;3.28;1.13;;;16.90;99.90;;;;;;4992360;28;20044;-86
2021/05/21 06:18:05;;;;;;;3.95;1.30;;;17.10;99.90;;;;;;4975016;28;20060;-87
2021/05/21 06:20:31;;;;;;;2.47;1.00;;;17.10;99.90;;;;;;4976575;28;20114;-87
2021/05/21 06:22:58;;;;;;;1.90;1.30;;;17.10;99.90;;;;;;4992110;28;20030;-86
2021/05/21 06:25:40;;;;;;;1.50;1.02;;;17.00;99.90;;;;;;4992481;28;20065;-87
2021/05/21 06:28:06;;;;;;;2.60;1.05;;;17.20;99.90;;;;;;4992285;28;20034;-86
2021/05/21 06:30:32;;;;;;;2.70;1.05;;;17.10;99.90;;;;;;4991903;28;20033;-87
2021/05/21 06:33:06;;;;;;;4.30;1.50;;;17.30;99.90;;;;;;5108311;27;20363;-88
2021/05/21 06:35:34;;;;;;;3.75;1.50;;;17.30;99.90;;;;;;5088181;28;20529;-87
2021/05/21 06:38:00;;;;;;;4.18;1.10;;;17.60;99.90;;;;;;5085128;28;20028;-88
2021/05/21 06:40:26;;;;;;;2.78;1.10;;;17.70;99.90;;;;;;5085361;28;20128;-87
2021/05/21 06:42:52;;;;;;;3.75;1.20;;;17.80;99.90;;;;;;5087444;28;20408;-88
2021/05/21 06:45:17;;;;;;;2.30;0.93;;;17.70;99.90;;;;;;5087517;28;20036;-88
2021/05/21 06:47:43;;;;;;;1.48;0.90;;;17.70;99.90;;;;;;5087170;28;20028;-89
2021/05/21 06:50:09;;;;;;;4.13;0.90;;;17.70;99.90;;;;;;5087380;28;20408;-89
2021/05/21 06:52:35;;;;;;;4.05;1.08;;;17.80;99.90;;;;;;5088295;28;20032;-86
2021/05/21 06:55:01;;;;;;;0.93;0.88;;;17.80;99.90;;;;;;5086778;28;20036;-84
2021/05/21 06:57:27;;;;;;;3.65;1.17;;;17.60;99.90;;;;;;5085183;28;20042;-85
2021/05/21 06:59:52;;;;;;;3.03;0.90;;;17.50;99.90;;;;;;5087221;28;20028;-85
2021/05/21 07:02:20;;;;;;;2.13;0.90;;;17.50;99.90;;;;;;5086299;28;20017;-84
2021/05/21 07:04:45;;;;;;;1.10;0.80;;;17.60;99.90;;;;;;5086830;28;20024;-85
2021/05/21 07:07:11;;;;;;;1.77;0.90;;;17.60;99.90;;;;;;5086487;28;20535;-84
2021/05/21 07:09:37;;;;;;;2.90;0.95;;;17.70;99.90;;;;;;5086342;28;20081;-84
2021/05/21 07:12:03;;;;;;;4.78;1.15;;;17.80;99.90;;;;;;5087800;28;20040;-84
2021/05/21 07:14:28;;;;;;;3.25;1.10;;;17.90;99.90;;;;;;5087543;28;20027;-84
2021/05/21 07:16:54;;;;;;;3.90;1.10;;;17.80;99.90;;;;;;5085768;28;20109;-85
2021/05/21 07:19:20;;;;;;;2.45;0.90;;;18.20;99.90;;;;;;5086465;28;20043;-84
2021/05/21 07:21:46;;;;;;;2.85;1.10;;;17.90;99.90;;;;;;5086139;28;20024;-84
2021/05/21 07:24:12;;;;;;;1.50;0.70;;;18.00;99.90;;;;;;5085394;28;20077;-85
2021/05/21 07:26:39;;;;;;;2.22;0.80;;;18.00;99.90;;;;;;5086154;28;20028;-85
2021/05/21 07:29:04;;;;;;;1.65;1.02;;;18.10;99.90;;;;;;5086112;28;20024;-85
2021/05/21 07:31:30;;;;;;;2.03;0.85;;;18.10;99.90;;;;;;5085501;28;20052;-84
2021/05/21 07:34:00;;;;;;;1.58;0.77;;;18.10;99.90;;;;;;5084329;28;20020;-84
2021/05/21 07:36:30;;;;;;;2.15;1.02;;;18.00;99.90;;;;;;5084926;28;20021;-85
2021/05/21 07:38:56;;;;;;;2.15;0.80;;;18.00;99.90;;;;;;5086208;28;20115;-85
2021/05/21 07:41:24;;;;;;;1.48;0.73;;;17.90;99.90;;;;;;5086525;28;20512;-85
2021/05/21 07:43:50;;;;;;;1.15;0.80;;;17.80;99.90;;;;;;5076931;28;20020;-84
2021/05/21 07:46:16;;;;;;;2.75;1.00;;;17.80;99.90;;;;;;5072024;28;20085;-84
2021/05/21 07:48:42;;;;;;;2.15;1.17;;;17.90;99.90;;;;;;5072309;28;20054;-85
2021/05/21 07:51:08;;;;;;;1.40;0.90;;;17.90;99.90;;;;;;5073892;28;20024;-85
2021/05/21 07:53:34;;;;;;;3.05;0.80;;;17.90;99.90;;;;;;5072897;28;20127;-85
2021/05/21 07:56:02;;;;;;;1.65;0.80;;;18.00;99.90;;;;;;5072557;28;20036;-85
2021/05/21 07:58:27;;;;;;;3.90;0.90;;;18.10;99.90;;;;;;5072410;28;20147;-84
2021/05/21 08:00:53;;;;;;;1.92;1.00;;;18.10;99.90;;;;;;5071956;28;20115;-85
2021/05/21 08:03:21;;;;;;;2.78;0.90;;;18.00;99.90;;;;;;5072341;28;20424;-85
2021/05/21 08:05:47;;;;;;;1.67;0.70;;;18.20;99.90;;;;;;5073981;28;20020;-84
2021/05/21 08:08:23;;;;;;;2.13;0.93;;;18.20;99.90;;;;;;5072035;28;20039;-85
2021/05/21 08:10:54;;;;;;;1.80;0.77;;;18.20;99.90;;;;;;5072213;28;20017;-85
2021/05/21 08:13:20;;;;;;;2.40;1.00;;;18.20;99.90;;;;;;5070322;28;20028;-84
2021/05/21 08:15:46;;;;;;;1.60;0.70;;;18.10;99.90;;;;;;5069690;28;20100;-84
2021/05/21 08:18:12;;;;;;;2.38;0.90;;;18.00;99.90;;;;;;5072301;28;20070;-84
2021/05/21 08:20:39;;;;;;;1.77;0.80;;;18.00;99.90;;;;;;5072572;28;20025;-85
2021/05/21 08:23:05;;;;;;;1.38;0.70;;;18.00;99.90;;;;;;5071788;28;20044;-85
2021/05/21 08:25:31;;;;;;;2.53;1.30;;;18.00;99.90;;;;;;5071713;28;20060;-84
2021/05/21 08:27:57;;;;;;;0.90;0.90;;;17.90;99.90;;;;;;5071453;28;20043;-84
2021/05/21 08:30:24;;;;;;;1.60;0.93;;;18.00;99.90;;;;;;5071219;28;20097;-84
2021/05/21 08:32:50;;;;;;;2.95;0.60;;;18.00;99.90;;;;;;5073340;28;20421;-85
2021/05/21 08:35:17;;;;;;;2.15;1.00;;;18.10;99.90;;;;;;5071396;28;20401;-85
2021/05/21 08:37:43;;;;;;;1.75;0.88;;;18.10;99.90;;;;;;5071598;28;20032;-85
2021/05/21 08:40:09;;;;;;;2.22;0.77;;;18.20;99.90;;;;;;5071388;28;20485;-85
2021/05/21 08:42:40;;;;;;;0.73;0.60;;;18.30;99.90;;;;;;5071249;28;20404;-85
2021/05/21 08:45:09;;;;;;;2.05;0.80;;;18.30;99.90;;;;;;5073260;28;20040;-84
2021/05/21 08:47:36;;;;;;;2.00;0.90;;;18.30;99.90;;;;;;5072716;28;20043;-84
2021/05/21 08:50:11;;;;;;;1.95;0.70;;;18.20;99.90;;;;;;5071418;28;20024;-85
2021/05/21 08:52:37;;;;;;;1.05;0.70;;;18.30;99.90;;;;;;5069338;28;20089;-85
2021/05/21 08:55:04;;;;;;;1.75;0.90;;;18.50;99.90;;;;;;5068644;28;20029;-84
2021/05/21 08:57:30;;;;;;;3.20;1.00;;;18.60;99.90;;;;;;5055208;28;20562;-85
2021/05/21 08:59:56;;;;;;;2.90;1.67;;;18.70;99.90;;;;;;5072937;28;20107;-85
2021/05/21 09:02:24;;;;;;;1.75;0.80;;;18.90;99.90;;;;;;5071296;28;20037;-84
2021/05/21 09:04:57;;;;;;;3.15;1.20;;;19.00;99.90;;;;;;5070761;28;20028;-84
2021/05/21 09:07:33;;;;;;;2.13;0.90;;;19.00;99.90;;;;;;5070648;28;20037;-85
2021/05/21 09:10:14;;;;;;;3.63;0.80;;;19.00;99.90;;;;;;5070915;28;20053;-85
2021/05/21 09:12:48;;;;;;;4.13;0.82;;;18.90;99.90;;;;;;5056271;28;20082;-84
2021/05/21 09:15:15;;;;;;;5.07;1.13;;;19.00;99.90;;;;;;5071389;28;20477;-85
2021/05/21 09:17:58;;;;;;;3.90;1.33;;;18.90;99.90;;;;;;5068922;28;20081;-84
2021/05/21 09:20:30;;;;;;;2.78;0.90;;;18.90;99.90;;;;;;5071044;28;20116;-85
2021/05/21 09:23:16;;;;;;;2.72;1.00;;;19.10;99.90;;;;;;5070558;28;20032;-86
2021/05/21 09:25:49;;;;;;;4.22;1.23;;;19.10;99.90;;;;;;5067701;28;20558;-86
2021/05/21 09:28:34;;;;;;;55.30;6.68;;;19.40;99.90;;;;;;5069838;28;20032;-85
2021/05/21 09:31:14;;;;;;;3.80;1.30;;;20.10;99.90;;;;;;5070273;28;20035;-85
2021/05/21 09:33:42;;;;;;;5.00;1.30;;;20.30;99.90;;;;;;5054371;28;20056;-85
2021/05/21 09:36:09;;;;;;;2.53;1.02;;;20.50;99.90;;;;;;5071522;28;20032;-85
2021/05/21 09:39:13;;;;;;;5.85;1.42;;;20.60;99.90;;;;;;5070944;28;20111;-85
2021/05/21 09:41:53;;;;;;;3.08;1.20;;;21.10;99.90;;;;;;5067456;28;20114;-84
2021/05/21 09:44:20;;;;;;;47.15;5.13;;;20.80;99.90;;;;;;5070081;28;20035;-86
2021/05/21 09:46:48;;;;;;;39.35;5.30;;;20.50;99.90;;;;;;5070203;28;20056;-85
2021/05/21 09:49:31;;;;;;;5.45;1.05;;;20.60;99.90;;;;;;5070083;28;20029;-86
2021/05/21 09:51:58;;;;;;;4.82;1.30;;;20.10;99.90;;;;;;5070159;28;20138;-86
2021/05/21 09:54:25;;;;;;;9.23;2.95;;;20.00;99.90;;;;;;5069382;28;20037;-88
2021/05/21 09:57:05;;;;;;;6.30;1.23;;;20.00;99.90;;;;;;5069754;28;20074;-87
2021/05/21 09:59:46;;;;;;;2.88;1.33;;;20.20;99.90;;;;;;5069535;28;20040;-88
2021/05/21 10:02:25;;;;;;;4.05;1.80;;;20.00;99.90;;;;;;5070030;28;20155;-86
2021/05/21 10:04:52;;;;;;;2.75;0.95;;;20.30;99.90;;;;;;5070311;28;20509;-88
2021/05/21 10:07:19;;;;;;;4.00;1.02;;;20.80;99.90;;;;;;5069629;28;20032;-86
2021/05/21 10:09:45;;;;;;;3.65;1.30;;;21.00;99.90;;;;;;5068302;28;20464;-86
2021/05/21 10:12:12;;;;;;;1.95;1.15;;;20.90;99.90;;;;;;5069117;28;20115;-88
2021/05/21 10:14:37;;;;;;;3.53;1.90;;;20.70;99.90;;;;;;5069031;28;20413;-88
2021/05/21 10:17:04;;;;;;;6.32;2.47;;;20.90;99.90;;;;;;5069657;28;20031;-89
2021/05/21 10:19:32;;;;;;;4.32;1.58;;;21.40;99.90;;;;;;5070230;28;20028;-87
2021/05/21 10:21:59;;;;;;;3.10;1.20;;;21.50;99.90;;;;;;5068770;28;20485;-90
2021/05/21 10:24:31;;;;;;;4.63;1.60;;;21.30;99.90;;;;;;5070889;28;20032;-90
2021/05/21 10:27:00;;;;;;;3.70;1.50;;;21.10;99.90;;;;;;5067560;28;20032;-94
2021/05/21 10:29:28;;;;;;;1.98;1.00;;;21.10;99.90;;;;;;5069253;28;20020;-91
2021/05/21 10:32:13;;;;;;;1.38;1.00;;;20.90;99.90;;;;;;5070413;28;20048;-94
2021/05/21 10:34:41;;;;;;;2.72;1.00;;;20.90;99.90;;;;;;5071335;28;20029;-93
2021/05/21 10:37:19;;;;;;;1.67;1.17;;;20.80;99.90;;;;;;5070932;28;20036;-94
2021/05/21 10:40:05;;;;;;;4.57;1.50;;;20.90;99.90;;;;;;5071156;28;20032;-94
2021/05/21 10:42:43;;;;;;;3.67;1.10;;;20.80;99.90;;;;;;5055344;28;20021;-92
2021/05/21 10:45:11;;;;;;;1.80;1.10;;;20.80;99.90;;;;;;5070624;28;20040;-84
2021/05/21 10:47:38;;;;;;;1.63;1.20;;;20.90;99.90;;;;;;5069480;28;20055;-91
2021/05/21 10:50:10;;;;;;;4.30;1.10;;;20.70;99.90;;;;;;5067050;28;20043;-84
2021/05/21 10:52:53;;;;;;;4.05;1.38;;;20.70;99.90;;;;;;5066093;28;20067;-88
2021/05/21 10:55:51;;;;;;;2.75;1.42;;;20.60;99.90;;;;;;5069097;28;20041;-85
2021/05/21 10:58:33;;;;;;;1.95;1.20;;;20.50;99.90;;;;;;5067352;28;20098;-85
2021/05/21 11:01:23;;;;;;;2.33;1.00;;;20.30;99.90;;;;;;5070000;28;20029;-87
2021/05/21 11:03:58;;;;;;;3.42;1.40;;;20.20;99.90;;;;;;5051550;28;20013;-86
2021/05/21 11:06:26;;;;;;;1.52;0.93;;;20.00;99.90;;;;;;5069210;28;20032;-86
2021/05/21 11:09:15;;;;;;;2.60;1.20;;;20.20;99.90;;;;;;5071506;28;20070;-90
2021/05/21 11:11:42;;;;;;;2.60;0.85;;;20.40;99.90;;;;;;5069232;28;20408;-85
2021/05/21 11:14:23;;;;;;;2.70;0.90;;;20.70;99.90;;;;;;5069331;28;20028;-86
2021/05/21 11:16:54;;;;;;;3.28;1.10;;;20.90;99.90;;;;;;5069467;28;20031;-84
2021/05/21 11:19:22;;;;;;;1.38;0.80;;;20.80;99.90;;;;;;5072070;28;20481;-84
2021/05/21 11:22:04;;;;;;;3.15;1.02;;;20.90;99.90;;;;;;5072813;28;20392;-85
2021/05/21 11:24:44;;;;;;;2.55;1.00;;;20.70;99.90;;;;;;5057331;28;20423;-86
2021/05/21 11:27:11;;;;;;;2.92;1.00;;;21.10;99.90;;;;;;5071351;28;20102;-85
2021/05/21 11:29:46;;;;;;;1.42;0.90;;;21.60;99.90;;;;;;5071931;28;20017;-85
2021/05/21 11:32:11;;;;;;;3.53;0.95;;;22.30;99.90;;;;;;5070625;28;20587;-85
2021/05/21 11:34:37;;;;;;;1.17;0.90;;;22.00;99.90;;;;;;5073135;28;20163;-85
2021/05/21 11:37:05;;;;;;;1.58;0.80;;;21.90;99.90;;;;;;5072316;28;20039;-85
2021/05/21 11:39:32;;;;;;;1.73;1.10;;;22.30;99.90;;;;;;5073034;28;20688;-86
2021/05/21 11:41:57;;;;;;;3.35;1.00;;;23.00;99.90;;;;;;5074295;28;20082;-85
2021/05/21 11:44:28;;;;;;;2.42;0.88;;;23.20;99.90;;;;;;5072368;28;20033;-86
2021/05/21 11:47:00;;;;;;;1.98;1.08;;;23.80;99.90;;;;;;5072469;28;20469;-85
2021/05/21 11:49:27;;;;;;;2.00;1.27;;;24.70;99.90;;;;;;5072712;28;20103;-86
2021/05/21 11:51:57;;;;;;;1.85;1.00;;;24.70;99.90;;;;;;5071773;28;20093;-86
2021/05/21 11:54:24;;;;;;;1.35;0.88;;;23.40;99.90;;;;;;5072717;28;20032;-85
2021/05/21 11:56:50;;;;;;;1.45;0.90;;;23.30;99.90;;;;;;5074230;28;20066;-86
2021/05/21 11:59:18;;;;;;;2.45;0.90;;;23.40;99.90;;;;;;5072613;28;20021;-85
2021/05/21 12:02:12;;;;;;;2.15;1.00;;;22.90;99.90;;;;;;5072045;28;20071;-86
2021/05/21 12:04:38;;;;;;;3.40;1.00;;;22.00;99.90;;;;;;5071262;28;20094;-86
2021/05/21 12:07:05;;;;;;;3.08;1.00;;;22.50;99.90;;;;;;5070017;28;20111;-86
2021/05/21 12:09:32;;;;;;;1.23;0.70;;;23.30;99.90;;;;;;5070564;28;20035;-85
2021/05/21 12:11:58;;;;;;;2.75;1.08;;;23.60;99.90;;;;;;5069730;28;20093;-86
2021/05/21 12:14:29;;;;;;;2.00;1.00;;;23.40;99.90;;;;;;5071980;28;20039;-85
2021/05/21 12:16:57;;;;;;;1.23;0.88;;;23.10;99.90;;;;;;5072217;28;20029;-85
2021/05/21 12:19:26;;;;;;;1.50;1.00;;;22.50;99.90;;;;;;5071818;28;20032;-85
2021/05/21 12:21:54;;;;;;;1.30;0.82;;;22.20;99.90;;;;;;5071208;28;20031;-85
2021/05/21 12:24:21;;;;;;;1.63;0.82;;;22.00;99.90;;;;;;5072645;28;20124;-85
2021/05/21 12:26:53;;;;;;;2.15;0.90;;;21.70;99.90;;;;;;5072128;28;20035;-85
2021/05/21 12:29:20;;;;;;;3.63;1.00;;;21.60;99.90;;;;;;5071373;28;20032;-85
2021/05/21 12:31:48;;;;;;;2.28;0.98;;;21.70;99.90;;;;;;5071292;28;20036;-85
2021/05/21 12:34:19;;;;;;;2.40;1.10;;;22.40;99.90;;;;;;5071997;28;20030;-85
2021/05/21 12:36:51;;;;;;;1.58;0.90;;;23.40;99.90;;;;;;5071646;28;20060;-85
2021/05/21 12:39:16;;;;;;;1.55;0.98;;;24.30;99.90;;;;;;5071517;28;20482;-85
2021/05/21 12:41:42;;;;;;;2.85;1.05;;;25.10;99.90;;;;;;5073383;28;20028;-85
2021/05/21 12:44:12;;;;;;;1.92;0.95;;;24.10;99.90;;;;;;5071770;28;20496;-85
2021/05/21 12:46:56;;;;;;;4.88;1.00;;;23.50;99.90;;;;;;5069679;28;20037;-85
2021/05/21 12:49:24;;;;;;;1.60;1.00;;;23.90;99.90;;;;;;5069392;28;20012;-85
2021/05/21 12:51:52;;;;;;;5.85;1.10;;;23.60;99.90;;;;;;5071171;28;20036;-85